createdAt,value
2023-02-24T00:00:31.982Z,46.13
2023-02-24T00:03:05.754Z,43.57
2023-02-24T00:05:39.149Z,48.33
2023-02-24T00:08:07.224Z,46.87
2023-02-24T00:10:37.437Z,46.20
2023-02-24T00:13:05.433Z,46.60
2023-02-24T00:15:35.232Z,47.63
2023-02-24T00:18:06.975Z,48.77
2023-02-24T00:20:35.579Z,43.83
2023-02-24T00:23:03.702Z,47.40
2023-02-24T00:25:31.633Z,46.20
2023-02-24T00:28:02.219Z,50.20
2023-02-24T00:30:32.778Z,47.70
2023-02-24T00:33:03.367Z,45.90
2023-02-24T00:35:31.415Z,46.93
2023-02-24T00:37:59.484Z,50.00
2023-02-24T00:40:30.182Z,53.63
2023-02-24T00:42:58.397Z,47.67
2023-02-24T00:45:30.362Z,49.40
2023-02-24T00:47:58.367Z,53.27
2023-02-24T00:50:27.697Z,54.63
2023-02-24T00:52:55.643Z,47.80
2023-02-24T00:55:23.771Z,46.27
2023-02-24T00:57:51.762Z,47.10
2023-02-24T01:00:21.308Z,48.17
2023-02-24T01:02:49.368Z,45.27
2023-02-24T01:05:17.360Z,43.10
2023-02-24T01:07:46.598Z,45.10
2023-02-24T01:10:14.522Z,46.40
2023-02-24T01:12:50.325Z,45.83
2023-02-24T01:15:20.611Z,44.90
2023-02-24T01:17:49.024Z,49.80
2023-02-24T01:20:18.863Z,44.83
2023-02-24T01:22:50.546Z,42.00
2023-02-24T01:25:20.209Z,46.53
2023-02-24T01:27:48.165Z,44.73
2023-02-24T01:30:18.073Z,43.20
2023-02-24T01:32:47.216Z,44.43
2023-02-24T01:35:17.612Z,43.20
2023-02-24T01:37:46.251Z,44.67
2023-02-24T01:40:21.676Z,45.33
2023-02-24T01:42:50.627Z,47.53
2023-02-24T01:45:24.999Z,49.17
2023-02-24T01:47:53.968Z,44.43
2023-02-24T01:50:25.922Z,45.63
2023-02-24T01:52:56.496Z,45.03
2023-02-24T01:55:32.231Z,45.70
2023-02-24T01:58:02.476Z,46.33
2023-02-24T02:00:37.582Z,51.00
2023-02-24T02:03:11.880Z,52.63
2023-02-24T02:05:41.625Z,52.33
2023-02-24T02:08:11.255Z,52.00
2023-02-24T02:10:44.294Z,46.37
2023-02-24T02:13:14.147Z,50.40
2023-02-24T02:15:52.078Z,51.60
2023-02-24T02:18:33.223Z,46.70
2023-02-24T02:21:38.049Z,49.87
2023-02-24T02:24:28.269Z,50.60
2023-02-24T02:27:29.375Z,53.50
2023-02-24T02:30:36.127Z,51.63
2023-02-24T02:33:41.805Z,50.57
2023-02-24T02:36:19.144Z,47.63
2023-02-24T02:38:55.137Z,50.43
2023-02-24T02:41:29.457Z,47.77
2023-02-24T02:44:04.152Z,51.90
2023-02-24T02:46:37.773Z,50.00
2023-02-24T02:49:14.178Z,51.70
2023-02-24T02:51:51.535Z,48.33
2023-02-24T02:54:29.605Z,49.97
2023-02-24T02:57:03.279Z,50.00
2023-02-24T02:59:33.456Z,45.47
2023-02-24T03:02:11.601Z,46.77
2023-02-24T03:04:43.300Z,49.97
2023-02-24T03:07:17.674Z,44.23
2023-02-24T03:09:51.541Z,54.40
2023-02-24T03:12:22.457Z,45.23
2023-02-24T03:14:56.689Z,49.00
2023-02-24T03:17:27.205Z,47.10
2023-02-24T03:20:01.668Z,44.20
2023-02-24T03:22:37.859Z,46.57
2023-02-24T03:25:06.885Z,47.43
2023-02-24T03:27:44.428Z,45.27
2023-02-24T03:30:16.956Z,44.20
2023-02-24T03:32:55.810Z,45.93
2023-02-24T03:35:27.261Z,44.37
2023-02-24T03:37:59.368Z,47.03
2023-02-24T03:40:29.830Z,44.60
2023-02-24T03:43:05.334Z,46.23
2023-02-24T03:45:37.908Z,41.30
2023-02-24T03:48:07.849Z,42.50
2023-02-24T03:50:37.962Z,49.73
2023-02-24T03:53:17.690Z,46.80
2023-02-24T03:55:59.013Z,45.87
2023-02-24T03:58:36.895Z,46.60
2023-02-24T04:01:13.043Z,41.40
2023-02-24T04:03:49.735Z,41.63
2023-02-24T04:06:23.414Z,46.40
2023-02-24T04:09:01.530Z,47.90
2023-02-24T04:11:37.380Z,43.93
2023-02-24T04:14:08.789Z,47.13
2023-02-24T04:16:43.077Z,48.10
2023-02-24T04:19:15.196Z,42.53
2023-02-24T04:21:45.277Z,42.37
2023-02-24T04:24:17.895Z,43.00
2023-02-24T04:26:47.365Z,43.17
2023-02-24T04:29:23.170Z,42.30
2023-02-24T04:31:58.591Z,44.47
2023-02-24T04:34:32.230Z,37.90
2023-02-24T04:37:02.258Z,42.50
2023-02-24T04:39:32.318Z,41.67
2023-02-24T04:42:01.630Z,41.00
2023-02-24T04:44:29.680Z,39.00
2023-02-24T04:46:58.134Z,39.67
2023-02-24T04:49:26.928Z,40.93
2023-02-24T04:51:57.130Z,45.60
2023-02-24T04:54:25.044Z,43.30
2023-02-24T04:56:54.297Z,45.67
2023-02-24T04:59:23.440Z,45.20
2023-02-24T05:01:53.058Z,42.43
2023-02-24T05:04:21.402Z,43.60
2023-02-24T05:06:49.350Z,51.50
2023-02-24T05:09:18.590Z,53.43
2023-02-24T05:11:49.073Z,43.90
2023-02-24T05:14:20.772Z,48.73
2023-02-24T05:16:50.083Z,46.47
2023-02-24T05:19:37.128Z,48.87
2023-02-24T05:22:07.073Z,48.90
2023-02-24T05:24:35.756Z,45.83
2023-02-24T05:27:04.211Z,48.07
2023-02-24T05:29:36.357Z,42.63
2023-02-24T05:32:05.751Z,46.07
2023-02-24T05:34:34.870Z,41.60
2023-02-24T05:37:10.204Z,44.07
2023-02-24T05:39:38.587Z,44.30
2023-02-24T05:42:07.138Z,42.70
2023-02-24T05:44:36.874Z,42.07
2023-02-24T05:47:05.988Z,47.73
2023-02-24T05:49:35.878Z,43.17
2023-02-24T05:52:07.891Z,43.80
2023-02-24T05:54:38.341Z,43.50
2023-02-24T05:57:08.979Z,44.23
2023-02-24T05:59:38.941Z,44.37
2023-02-24T06:02:09.485Z,45.50
2023-02-24T06:04:46.377Z,42.47
2023-02-24T06:07:18.923Z,43.37
2023-02-24T06:09:50.175Z,43.37
2023-02-24T06:12:19.579Z,46.40
2023-02-24T06:14:49.152Z,43.70
2023-02-24T06:17:18.591Z,44.20
2023-02-24T06:19:47.987Z,43.73
2023-02-24T06:22:19.104Z,43.87
2023-02-24T06:24:49.368Z,43.37
2023-02-24T06:27:19.586Z,41.73
2023-02-24T06:29:50.750Z,39.10
2023-02-24T06:32:19.165Z,63.07
2023-02-24T06:34:47.346Z,68.40
2023-02-24T06:37:18.200Z,44.27
2023-02-24T06:39:46.295Z,44.17
2023-02-24T06:42:14.900Z,50.40
2023-02-24T06:44:43.033Z,46.70
2023-02-24T06:47:16.242Z,45.20
2023-02-24T06:49:44.255Z,46.50
2023-02-24T06:52:18.220Z,43.47
2023-02-24T06:54:47.953Z,50.70
2023-02-24T06:57:15.925Z,45.70
2023-02-24T06:59:43.862Z,43.43
2023-02-24T07:02:13.160Z,44.67
2023-02-24T07:04:44.528Z,40.33
2023-02-24T07:07:14.169Z,45.50
2023-02-24T07:09:45.354Z,37.40
2023-02-24T07:12:13.622Z,44.87
2023-02-24T07:14:42.428Z,37.67
2023-02-24T07:17:10.596Z,40.30
2023-02-24T07:19:41.463Z,41.90
2023-02-24T07:22:10.941Z,42.07
2023-02-24T07:24:46.045Z,44.23
2023-02-24T07:27:21.894Z,40.90
2023-02-24T07:29:52.970Z,38.80
2023-02-24T07:32:23.393Z,40.67
2023-02-24T07:34:53.204Z,39.80
2023-02-24T07:37:23.138Z,38.87
2023-02-24T07:39:51.694Z,42.70
2023-02-24T07:42:19.667Z,46.10
2023-02-24T07:44:49.220Z,65.33
2023-02-24T07:47:17.258Z,43.83
2023-02-24T07:49:45.827Z,40.63
2023-02-24T07:52:16.278Z,43.10
2023-02-24T07:54:44.491Z,47.60
2023-02-24T07:57:13.939Z,43.37
2023-02-24T07:59:46.829Z,42.57
2023-02-24T08:02:15.267Z,43.03
2023-02-24T08:04:49.810Z,37.07
2023-02-24T08:07:24.590Z,36.13
2023-02-24T08:10:14.140Z,37.67
2023-02-24T08:12:47.614Z,36.60
2023-02-24T08:15:23.556Z,36.70
2023-02-24T08:17:53.259Z,37.50
2023-02-24T08:20:25.939Z,39.10
2023-02-24T08:22:56.300Z,38.57
2023-02-24T08:25:35.590Z,38.67
2023-02-24T08:28:08.915Z,37.30
2023-02-24T08:30:39.841Z,41.13
2023-02-24T08:33:10.166Z,34.07
2023-02-24T08:35:44.384Z,35.93
2023-02-24T08:38:16.878Z,34.10
2023-02-24T08:40:54.850Z,35.50
2023-02-24T08:43:33.184Z,35.83
2023-02-24T08:46:06.501Z,35.03
2023-02-24T08:48:42.234Z,33.90
2023-02-24T08:51:15.102Z,34.37
2023-02-24T08:53:46.733Z,34.20
2023-02-24T08:56:23.970Z,38.77
2023-02-24T08:58:56.974Z,40.53
2023-02-24T09:01:28.064Z,38.33
2023-02-24T09:03:58.154Z,34.37
2023-02-24T09:06:35.610Z,33.30
2023-02-24T09:09:22.572Z,33.80
2023-02-24T09:11:56.128Z,33.50
2023-02-24T09:14:28.685Z,35.30
2023-02-24T09:17:05.953Z,34.20
2023-02-24T09:20:01.878Z,33.20
2023-02-24T09:22:32.338Z,31.27
2023-02-24T09:25:19.257Z,31.53
2023-02-24T09:27:52.550Z,29.73
2023-02-24T09:30:42.411Z,32.27
2023-02-24T09:33:18.953Z,29.67
2023-02-24T09:35:49.063Z,28.97
2023-02-24T09:38:19.126Z,25.53
2023-02-24T09:40:50.334Z,24.80
2023-02-24T09:43:21.710Z,28.40
2023-02-24T09:45:58.366Z,28.27
2023-02-24T09:48:43.564Z,25.33
2023-02-24T09:51:21.660Z,23.57
2023-02-24T09:53:56.624Z,24.40
2023-02-24T09:56:36.916Z,22.47
2023-02-24T09:59:14.030Z,24.43
2023-02-24T10:01:48.351Z,23.40
2023-02-24T10:04:28.771Z,23.77
2023-02-24T10:07:03.061Z,22.13
2023-02-24T10:09:35.408Z,22.43
2023-02-24T10:12:19.532Z,23.90
2023-02-24T10:14:52.938Z,22.33
2023-02-24T10:17:30.530Z,21.70
2023-02-24T10:20:02.364Z,20.07
2023-02-24T10:22:50.330Z,20.20
2023-02-24T10:25:36.032Z,20.10
2023-02-24T10:28:17.914Z,17.13
2023-02-24T10:31:01.560Z,16.10
2023-02-24T10:33:38.708Z,11.30
2023-02-24T10:36:09.154Z,9.57
2023-02-24T10:38:38.219Z,9.73
2023-02-24T10:41:07.139Z,9.93
2023-02-24T10:43:45.469Z,9.53
2023-02-24T10:46:39.929Z,11.33
2023-02-24T10:49:16.251Z,10.40
2023-02-24T10:51:50.009Z,9.70
2023-02-24T10:54:44.822Z,11.27
2023-02-24T10:57:23.120Z,12.13
2023-02-24T11:00:27.480Z,10.03
2023-02-24T11:03:07.136Z,9.93
2023-02-24T11:05:44.344Z,10.27
2023-02-24T11:08:36.328Z,10.83
2023-02-24T11:11:20.219Z,11.10
2023-02-24T11:14:10.312Z,10.30
2023-02-24T11:17:08.706Z,8.77
2023-02-24T11:19:43.978Z,9.20
2023-02-24T11:22:16.076Z,8.80
2023-02-24T11:24:46.261Z,9.47
2023-02-24T11:27:17.341Z,8.30
2023-02-24T11:30:06.162Z,8.87
2023-02-24T11:33:02.754Z,9.63
2023-02-24T11:35:38.061Z,10.83
2023-02-24T11:38:18.171Z,9.50
2023-02-24T11:40:53.304Z,9.20
2023-02-24T11:43:28.401Z,7.30
2023-02-24T11:46:03.290Z,8.10
2023-02-24T11:48:38.390Z,6.60
2023-02-24T11:51:10.163Z,7.67
2023-02-24T11:53:44.602Z,7.87
2023-02-24T11:56:16.629Z,7.50
2023-02-24T11:58:49.452Z,7.73
2023-02-24T12:01:24.417Z,7.80
2023-02-24T12:04:02.857Z,6.60
2023-02-24T12:06:37.514Z,7.53
2023-02-24T12:09:15.500Z,6.47
2023-02-24T12:11:53.180Z,6.70
2023-02-24T12:14:31.819Z,5.63
2023-02-24T12:17:17.972Z,5.70
2023-02-24T12:20:05.527Z,5.60
2023-02-24T12:22:44.642Z,5.70
2023-02-24T12:25:14.933Z,5.20
2023-02-24T12:27:58.660Z,5.33
2023-02-24T12:30:38.825Z,4.67
2023-02-24T12:33:19.312Z,7.30
2023-02-24T12:36:02.944Z,5.13
2023-02-24T12:38:51.246Z,4.73
2023-02-24T12:41:41.722Z,5.67
2023-02-24T12:44:22.390Z,5.03
2023-02-24T12:46:58.341Z,5.53
2023-02-24T12:49:50.117Z,6.67
2023-02-24T12:52:28.072Z,7.70
2023-02-24T12:55:02.779Z,5.60
2023-02-24T12:57:37.125Z,5.90
2023-02-24T13:00:12.693Z,6.20
2023-02-24T13:02:53.305Z,5.40
2023-02-24T13:05:29.407Z,5.93
2023-02-24T13:08:13.560Z,7.30
2023-02-24T13:10:47.433Z,7.00
2023-02-24T13:13:24.494Z,7.00
2023-02-24T13:15:54.056Z,7.10
2023-02-24T13:18:26.648Z,6.13
2023-02-24T13:21:05.684Z,5.53
2023-02-24T13:23:36.018Z,5.50
2023-02-24T13:26:04.886Z,6.40
2023-02-24T13:28:36.254Z,7.30
2023-02-24T13:31:06.675Z,6.60
2023-02-24T13:33:36.531Z,7.23
2023-02-24T13:36:15.002Z,6.53
2023-02-24T13:38:46.828Z,6.30
2023-02-24T13:41:40.617Z,6.60
2023-02-24T13:44:28.465Z,5.73
2023-02-24T13:47:23.786Z,6.27
2023-02-24T13:50:03.243Z,7.10
2023-02-24T13:52:43.658Z,6.23
2023-02-24T13:55:29.290Z,9.13
2023-02-24T13:58:18.264Z,6.97
2023-02-24T14:00:58.415Z,6.27
2023-02-24T14:03:29.799Z,7.03
2023-02-24T14:05:59.894Z,7.00
2023-02-24T14:08:36.537Z,6.30
2023-02-24T14:11:10.958Z,5.77
2023-02-24T14:13:39.866Z,6.73
2023-02-24T14:16:11.853Z,6.00
2023-02-24T14:18:41.030Z,6.63
2023-02-24T14:21:22.298Z,6.23
2023-02-24T14:23:57.145Z,5.47
2023-02-24T14:26:27.396Z,6.20
2023-02-24T14:29:00.398Z,5.67
2023-02-24T14:31:30.029Z,5.23
2023-02-24T14:34:01.218Z,6.30
2023-02-24T14:36:32.785Z,6.10
2023-02-24T14:39:04.784Z,6.87
2023-02-24T14:41:34.445Z,9.93
2023-02-24T14:44:12.035Z,7.60
2023-02-24T14:46:48.657Z,7.63
2023-02-24T14:49:21.270Z,8.40
2023-02-24T14:51:54.879Z,6.90
2023-02-24T14:54:31.580Z,5.90
2023-02-24T14:57:01.841Z,6.20
2023-02-24T14:59:35.074Z,6.90
2023-02-24T15:02:04.142Z,8.30
2023-02-24T15:04:36.721Z,8.60
2023-02-24T15:07:07.236Z,7.90
2023-02-24T15:09:38.207Z,7.33
2023-02-24T15:12:22.521Z,6.67
2023-02-24T15:14:53.675Z,7.10
2023-02-24T15:17:23.134Z,6.97
2023-02-24T15:19:55.545Z,7.00
2023-02-24T15:22:26.757Z,7.80
2023-02-24T15:24:56.797Z,7.83
2023-02-24T15:27:28.772Z,7.10
2023-02-24T15:30:02.313Z,8.23
2023-02-24T15:32:33.613Z,7.90
2023-02-24T15:35:02.049Z,9.43
2023-02-24T15:37:34.674Z,7.43
2023-02-24T15:40:18.691Z,6.50
2023-02-24T15:42:53.756Z,7.83
2023-02-24T15:45:28.268Z,8.23
2023-02-24T15:47:58.044Z,7.23
2023-02-24T15:50:26.767Z,8.87
2023-02-24T15:52:57.046Z,8.13
2023-02-24T15:55:26.828Z,12.13
2023-02-24T15:58:01.724Z,10.97
2023-02-24T16:00:31.013Z,7.40
2023-02-24T16:02:59.317Z,7.67
2023-02-24T16:05:27.673Z,6.80
2023-02-24T16:07:55.824Z,6.40
2023-02-24T16:10:26.405Z,6.87
2023-02-24T16:12:56.422Z,6.77
2023-02-24T16:15:28.995Z,7.43
2023-02-24T16:17:58.199Z,7.53
2023-02-24T16:20:28.556Z,7.17
2023-02-24T16:22:57.326Z,7.80
2023-02-24T16:25:26.479Z,6.27
2023-02-24T16:27:57.235Z,9.33
2023-02-24T16:30:30.515Z,7.80
2023-02-24T16:32:59.455Z,8.50
2023-02-24T16:35:28.526Z,7.47
2023-02-24T16:37:56.513Z,7.13
2023-02-24T16:40:27.886Z,7.83
2023-02-24T16:42:56.363Z,12.60
2023-02-24T16:45:29.395Z,7.90
2023-02-24T16:48:02.190Z,8.43
2023-02-24T16:50:34.110Z,8.07
2023-02-24T16:53:02.464Z,7.83
2023-02-24T16:55:30.406Z,8.17
2023-02-24T16:57:58.448Z,7.67
2023-02-24T17:00:28.373Z,6.30
2023-02-24T17:02:56.482Z,7.80
2023-02-24T17:05:27.221Z,8.50
2023-02-24T17:07:57.362Z,7.23
2023-02-24T17:10:26.438Z,7.87
2023-02-24T17:12:54.353Z,6.27
2023-02-24T17:15:25.626Z,7.63
2023-02-24T17:17:54.885Z,7.83
2023-02-24T17:20:23.376Z,6.50
2023-02-24T17:22:51.354Z,8.50
2023-02-24T17:25:21.160Z,10.77
2023-02-24T17:27:49.236Z,11.07
2023-02-24T17:30:19.241Z,7.57
2023-02-24T17:32:47.321Z,8.20
2023-02-24T17:35:17.000Z,7.70
2023-02-24T17:37:45.184Z,7.20
2023-02-24T17:40:14.425Z,7.97
2023-02-24T17:42:42.774Z,6.97
2023-02-24T17:45:12.283Z,6.70
2023-02-24T17:47:40.935Z,7.37
2023-02-24T17:50:10.587Z,6.00
2023-02-24T17:52:41.232Z,7.30
2023-02-24T17:55:10.350Z,6.50
2023-02-24T17:57:39.723Z,6.07
2023-02-24T18:00:09.436Z,6.07
2023-02-24T18:02:38.517Z,7.57
2023-02-24T18:05:07.055Z,6.43
2023-02-24T18:07:35.127Z,7.10
2023-02-24T18:10:05.168Z,6.90
2023-02-24T18:12:33.199Z,7.77
2023-02-24T18:15:08.691Z,6.40
2023-02-24T18:17:38.370Z,7.30
2023-02-24T18:20:08.348Z,8.17
2023-02-24T18:22:36.870Z,6.40
2023-02-24T18:25:07.382Z,6.60
2023-02-24T18:27:35.384Z,7.27
2023-02-24T18:30:03.660Z,6.70
2023-02-24T18:32:31.845Z,8.17
2023-02-24T18:35:00.115Z,6.87
2023-02-24T18:37:28.350Z,6.50
2023-02-24T18:39:56.438Z,6.40
2023-02-24T18:42:25.930Z,7.37
2023-02-24T18:44:53.855Z,6.40
2023-02-24T18:47:21.787Z,6.40
2023-02-24T18:49:49.869Z,7.53
2023-02-24T18:52:17.803Z,6.53
2023-02-24T18:54:46.691Z,7.07
2023-02-24T18:57:14.613Z,7.83
2023-02-24T18:59:44.053Z,8.20
2023-02-24T19:02:12.135Z,7.10
2023-02-24T19:04:40.375Z,7.43
2023-02-24T19:07:08.428Z,9.13
2023-02-24T19:09:36.486Z,11.37
2023-02-24T19:12:04.527Z,8.80
2023-02-24T19:14:32.488Z,7.77
2023-02-24T19:17:02.953Z,8.93
2023-02-24T19:19:31.103Z,8.07
2023-02-24T19:21:59.090Z,7.70
2023-02-24T19:24:27.301Z,8.40
2023-02-24T19:26:55.481Z,8.77
2023-02-24T19:29:23.568Z,9.27
2023-02-24T19:31:54.046Z,9.20
2023-02-24T19:34:23.570Z,9.00
2023-02-24T19:36:51.484Z,8.97
2023-02-24T19:39:19.486Z,8.17
2023-02-24T19:41:49.525Z,9.77
2023-02-24T19:44:17.835Z,9.20
2023-02-24T19:46:45.975Z,8.00
2023-02-24T19:49:13.902Z,9.30
2023-02-24T19:51:46.023Z,8.30
2023-02-24T19:54:16.005Z,8.83
2023-02-24T19:56:44.001Z,9.30
2023-02-24T19:59:12.284Z,8.03
2023-02-24T20:01:40.522Z,8.20
2023-02-24T20:04:09.211Z,8.60
2023-02-24T20:06:39.123Z,7.80
2023-02-24T20:09:11.415Z,9.00
2023-02-24T20:11:40.331Z,8.03
2023-02-24T20:14:09.716Z,8.20
2023-02-24T20:16:38.309Z,8.30
2023-02-24T20:19:09.081Z,9.40
2023-02-24T20:21:38.474Z,9.63
2023-02-24T20:24:10.129Z,9.40
2023-02-24T20:26:41.236Z,9.90
2023-02-24T20:29:11.180Z,8.33
2023-02-24T20:31:39.489Z,8.90
2023-02-24T20:34:09.196Z,9.70
2023-02-24T20:36:37.823Z,9.50
2023-02-24T20:39:07.488Z,9.27
2023-02-24T20:41:36.770Z,8.90
2023-02-24T20:44:05.135Z,8.30
2023-02-24T20:46:34.082Z,8.97
2023-02-24T20:49:03.961Z,7.17
2023-02-24T20:51:33.252Z,8.30
2023-02-24T20:54:01.829Z,7.20
2023-02-24T20:56:34.043Z,5.80
2023-02-24T20:59:05.520Z,5.73
2023-02-24T21:01:34.711Z,6.50
2023-02-24T21:04:03.373Z,5.57
2023-02-24T21:06:31.605Z,5.83
2023-02-24T21:08:59.956Z,6.87
2023-02-24T21:11:29.715Z,6.73
2023-02-24T21:13:57.738Z,7.30
2023-02-24T21:16:27.942Z,7.07
2023-02-24T21:18:58.589Z,8.10
2023-02-24T21:21:26.732Z,6.97
2023-02-24T21:23:55.134Z,6.70
2023-02-24T21:26:27.000Z,7.10
2023-02-24T21:28:57.944Z,6.40
2023-02-24T21:31:28.408Z,5.50
2023-02-24T21:33:57.019Z,6.13
2023-02-24T21:36:26.292Z,6.80
2023-02-24T21:38:54.924Z,7.67
2023-02-24T21:41:23.812Z,7.50
2023-02-24T21:43:54.662Z,7.43
2023-02-24T21:46:24.623Z,9.13
2023-02-24T21:48:56.161Z,7.60
2023-02-24T21:51:24.830Z,8.80
2023-02-24T21:53:54.855Z,8.60
2023-02-24T21:56:25.653Z,8.97
2023-02-24T21:58:57.522Z,8.90
2023-02-24T22:01:27.854Z,8.63
2023-02-24T22:03:58.309Z,9.60
2023-02-24T22:06:30.283Z,9.50
2023-02-24T22:08:59.821Z,10.27
2023-02-24T22:11:27.922Z,9.77
2023-02-24T22:13:55.820Z,9.43
2023-02-24T22:16:26.338Z,9.80
2023-02-24T22:18:55.549Z,9.33
2023-02-24T22:21:27.679Z,8.20
2023-02-24T22:23:58.349Z,8.53
2023-02-24T22:26:26.823Z,9.17
2023-02-24T22:28:55.923Z,8.97
2023-02-24T22:31:25.654Z,9.60
2023-02-24T22:33:53.924Z,8.10
2023-02-24T22:36:25.993Z,7.33
2023-02-24T22:38:54.243Z,7.53
2023-02-24T22:41:24.761Z,7.13
2023-02-24T22:43:53.916Z,6.80
2023-02-24T22:46:24.019Z,6.03
2023-02-24T22:48:52.195Z,6.57
2023-02-24T22:51:20.732Z,8.20
2023-02-24T22:53:51.021Z,6.27
2023-02-24T22:56:21.912Z,6.70
2023-02-24T22:58:50.206Z,6.83
2023-02-24T23:01:21.828Z,6.20
2023-02-24T23:03:50.141Z,6.40
2023-02-24T23:06:20.298Z,7.03
2023-02-24T23:08:51.524Z,7.03
2023-02-24T23:11:21.570Z,6.67
2023-02-24T23:13:51.080Z,7.47
2023-02-24T23:16:21.901Z,7.40
2023-02-24T23:18:53.671Z,7.90
2023-02-24T23:21:24.866Z,6.33
2023-02-24T23:23:57.012Z,7.00
2023-02-24T23:26:30.065Z,7.27
2023-02-24T23:28:58.061Z,8.10
2023-02-24T23:31:26.392Z,7.03
2023-02-24T23:33:55.746Z,9.00
2023-02-24T23:36:25.214Z,7.47
2023-02-24T23:38:57.199Z,8.03
2023-02-24T23:41:25.434Z,7.30
2023-02-24T23:43:53.368Z,7.50
2023-02-24T23:46:21.676Z,8.07
2023-02-24T23:48:52.424Z,7.87
2023-02-24T23:51:21.133Z,8.43
2023-02-24T23:53:49.348Z,8.00
2023-02-24T23:56:20.333Z,9.70
2023-02-24T23:58:51.633Z,8.80
